Time;durP1;ratioP1;P1;durP2;ratioP2;P2;SDS_P1;SDS_P2;PMS_P1;PMS_P2;Temp;Humidity;BMP_temperature;BMP_pressure;BME280_temperature;BME280_humidity;BME280_pressure;Samples;Min_cycle;Max_cycle;Signal;HPM_P1;HPM_P2
2021/11/09 00:00:30;;;;;;;2.03;1.92;;;7.60;99.90;;;;;;7389876;19;20313;-79
2021/11/09 00:02:57;;;;;;;4.38;2.53;;;7.50;99.90;;;;;;7389719;19;20317;-80
2021/11/09 00:05:25;;;;;;;3.13;2.47;;;7.50;99.90;;;;;;7387741;19;20319;-79
2021/11/09 00:07:57;;;;;;;2.90;2.55;;;7.50;99.90;;;;;;7391124;19;20309;-78
2021/11/09 00:10:23;;;;;;;2.65;2.15;;;7.50;99.90;;;;;;7387416;19;20309;-79
2021/11/09 00:12:57;;;;;;;4.45;2.75;;;7.60;99.90;;;;;;7389144;19;20361;-79
2021/11/09 00:15:23;;;;;;;2.35;2.15;;;7.50;99.90;;;;;;7386538;19;20444;-79
2021/11/09 00:17:53;;;;;;;5.97;2.90;;;7.30;99.90;;;;;;7389649;19;20301;-79
2021/11/09 00:20:21;;;;;;;3.67;2.50;;;7.60;99.90;;;;;;7388345;19;20380;-79
2021/11/09 00:22:47;;;;;;;3.10;2.70;;;7.50;99.90;;;;;;7388717;19;20744;-79
2021/11/09 00:25:13;;;;;;;3.65;2.63;;;7.40;99.90;;;;;;7385923;19;20329;-79
2021/11/09 00:27:38;;;;;;;3.90;2.50;;;7.40;99.90;;;;;;7387010;19;20307;-79
2021/11/09 00:30:06;;;;;;;3.85;2.83;;;7.40;99.90;;;;;;7389387;19;20336;-79
2021/11/09 00:32:32;;;;;;;2.50;2.30;;;7.40;99.90;;;;;;7390210;19;20312;-79
2021/11/09 00:34:58;;;;;;;2.97;2.20;;;7.40;99.90;;;;;;7388009;19;21025;-79
2021/11/09 00:37:23;;;;;;;6.63;3.10;;;7.40;99.90;;;;;;7389770;19;20328;-80
2021/11/09 00:39:49;;;;;;;4.40;2.73;;;7.40;99.90;;;;;;7387597;19;20341;-79
2021/11/09 00:42:15;;;;;;;2.80;2.60;;;7.60;99.90;;;;;;7388949;19;20324;-79
2021/11/09 00:44:41;;;;;;;2.97;2.40;;;7.30;99.90;;;;;;7394534;19;20936;-77
2021/11/09 00:47:07;;;;;;;3.63;2.35;;;7.40;99.90;;;;;;7395471;19;20316;-79
2021/11/09 00:49:32;;;;;;;2.90;2.55;;;7.50;99.90;;;;;;7395572;19;20700;-79
2021/11/09 00:51:58;;;;;;;2.88;2.58;;;7.30;99.90;;;;;;7395276;19;20335;-80
2021/11/09 00:54:24;;;;;;;2.40;2.20;;;7.20;99.90;;;;;;7395306;19;20451;-79
2021/11/09 00:56:49;;;;;;;2.88;2.50;;;7.10;99.90;;;;;;7394288;19;20324;-80
2021/11/09 00:59:15;;;;;;;3.53;2.67;;;7.20;99.90;;;;;;7397910;19;20388;-79
2021/11/09 01:01:41;;;;;;;3.15;2.40;;;7.10;99.90;;;;;;7395196;19;20336;-79
2021/11/09 01:04:07;;;;;;;3.22;2.50;;;7.10;99.90;;;;;;7392506;19;21003;-80
2021/11/09 01:06:33;;;;;;;2.70;2.20;;;7.10;99.90;;;;;;7395853;19;20308;-79
2021/11/09 01:08:59;;;;;;;6.23;2.63;;;7.10;99.90;;;;;;7372474;19;20396;-79
2021/11/09 01:11:24;;;;;;;3.10;2.80;;;7.10;99.90;;;;;;7394456;19;21007;-79
2021/11/09 01:14:01;;;;;;;5.00;2.88;;;7.00;99.90;;;;;;7392733;19;20373;-78
2021/11/09 01:16:26;;;;;;;3.00;2.63;;;7.00;99.90;;;;;;7386738;19;20352;-80
2021/11/09 01:18:54;;;;;;;3.83;3.17;;;6.90;99.90;;;;;;7387979;19;20890;-79
2021/11/09 01:21:19;;;;;;;4.40;2.73;;;6.90;99.90;;;;;;7389263;19;20336;-79
2021/11/09 01:23:46;;;;;;;3.08;2.78;;;6.90;99.90;;;;;;7388847;19;20431;-79
2021/11/09 01:26:12;;;;;;;4.22;2.75;;;6.90;99.90;;;;;;7383992;19;20349;-80
2021/11/09 01:28:38;;;;;;;3.43;2.70;;;6.80;99.90;;;;;;7390547;19;20336;-79
2021/11/09 01:31:07;;;;;;;3.67;2.97;;;6.90;99.90;;;;;;7387997;19;20321;-80
2021/11/09 01:33:33;;;;;;;4.57;2.47;;;6.90;99.90;;;;;;7388696;19;20700;-79
2021/11/09 01:35:59;;;;;;;4.43;2.90;;;6.90;99.90;;;;;;7385241;19;20338;-80
2021/11/09 01:38:25;;;;;;;4.78;3.30;;;7.00;99.90;;;;;;7387731;19;20750;-80
2021/11/09 01:40:50;;;;;;;3.45;3.00;;;6.90;99.90;;;;;;7385913;19;20309;-79
2021/11/09 01:43:16;;;;;;;3.33;2.90;;;6.90;99.90;;;;;;7385986;19;20378;-79
2021/11/09 01:45:44;;;;;;;3.00;2.70;;;6.90;99.90;;;;;;7382339;19;20345;-79
2021/11/09 01:48:10;;;;;;;5.25;2.90;;;6.90;99.90;;;;;;7390151;19;20409;-80
2021/11/09 01:50:39;;;;;;;3.37;3.07;;;7.00;99.90;;;;;;7395785;19;20876;-79
2021/11/09 01:53:05;;;;;;;3.38;3.08;;;7.00;99.90;;;;;;7394383;19;20317;-79
2021/11/09 01:55:31;;;;;;;7.38;2.97;;;7.10;99.90;;;;;;7388693;19;20352;-79
2021/11/09 01:57:56;;;;;;;3.78;3.38;;;7.10;99.90;;;;;;7387393;19;20317;-79
2021/11/09 02:00:25;;;;;;;3.40;2.90;;;7.10;99.90;;;;;;7387891;19;20324;-79
2021/11/09 02:02:51;;;;;;;3.20;2.90;;;7.10;99.90;;;;;;7390375;19;20417;-79
2021/11/09 02:05:18;;;;;;;5.72;3.42;;;7.10;99.90;;;;;;7387250;19;20324;-80
2021/11/09 02:07:48;;;;;;;4.80;3.30;;;7.10;99.90;;;;;;7386307;19;20340;-79
2021/11/09 02:10:14;;;;;;;3.47;3.07;;;7.10;99.90;;;;;;7388393;19;20437;-80
2021/11/09 02:12:40;;;;;;;4.70;3.17;;;7.10;99.90;;;;;;7388450;19;20323;-79
2021/11/09 02:15:07;;;;;;;4.95;3.45;;;7.10;99.90;;;;;;7385529;19;20328;-79
2021/11/09 02:17:35;;;;;;;3.17;2.83;;;7.20;99.90;;;;;;7388838;19;20316;-79
2021/11/09 02:20:01;;;;;;;4.07;2.97;;;7.20;99.90;;;;;;7383395;19;20352;-78
2021/11/09 02:22:27;;;;;;;3.70;2.70;;;7.20;99.90;;;;;;7386402;19;20690;-79
2021/11/09 02:24:54;;;;;;;3.50;2.70;;;7.30;99.90;;;;;;7385506;19;20304;-79
2021/11/09 02:27:19;;;;;;;3.00;2.70;;;7.30;99.90;;;;;;7384704;19;20333;-79
2021/11/09 02:29:46;;;;;;;3.37;3.07;;;7.30;99.90;;;;;;7385975;19;20895;-80
2021/11/09 02:32:11;;;;;;;6.13;3.05;;;7.40;99.90;;;;;;7387328;19;20370;-80
2021/11/09 02:34:37;;;;;;;3.28;2.97;;;7.30;99.90;;;;;;7386475;19;20368;-80
2021/11/09 02:37:03;;;;;;;3.70;3.23;;;7.30;99.90;;;;;;7386746;19;20331;-80
2021/11/09 02:39:28;;;;;;;4.07;2.70;;;7.30;99.90;;;;;;7388063;19;20308;-79
2021/11/09 02:41:54;;;;;;;2.55;2.35;;;7.40;99.90;;;;;;7386281;19;20847;-80
2021/11/09 02:44:23;;;;;;;3.50;3.20;;;7.40;99.90;;;;;;7387792;19;20312;-80
2021/11/09 02:46:55;;;;;;;2.95;2.60;;;7.40;99.90;;;;;;7389145;19;20308;-79
2021/11/09 02:54:25;;;;;;;3.53;2.88;;;7.50;99.90;;;;;;7391700;19;20868;-79
2021/11/09 02:56:57;;;;;;;3.40;3.10;;;7.60;99.90;;;;;;7286594;19;2012121;-80
2021/11/09 03:10:16;;;;;;;3.63;2.95;;;7.50;99.90;;;;;;7389255;19;20360;-80
2021/11/09 03:12:41;;;;;;;4.90;2.90;;;7.50;99.90;;;;;;7284976;19;2010111;-79
2021/11/09 03:15:13;;;;;;;2.73;2.53;;;7.50;99.90;;;;;;7380514;19;20691;-80
2021/11/09 03:17:53;;;;;;;4.20;3.20;;;7.60;99.90;;;;;;7383759;19;20345;-80
2021/11/09 03:20:48;;;;;;;3.20;2.92;;;7.50;99.90;;;;;;7383494;19;20439;-78
2021/11/09 03:45:29;;;;;;;3.40;2.70;;;7.50;99.90;;;;;;7279774;19;2010720;-79
2021/11/09 03:48:02;;;;;;;2.88;2.65;;;7.50;99.90;;;;;;7385422;19;20421;-79
2021/11/09 03:50:27;;;;;;;3.30;2.72;;;7.70;99.90;;;;;;7385071;19;20898;-80
2021/11/09 03:53:00;;;;;;;3.60;2.70;;;7.50;99.90;;;;;;7384732;19;20341;-78
2021/11/09 03:56:16;;;;;;;2.72;2.53;;;7.60;99.90;;;;;;7384288;19;20323;-80
2021/11/09 03:58:21;;;;;;;3.63;2.40;;;7.60;99.90;;;;;;7285380;19;2011473;-80
2021/11/09 04:00:55;;;;;;;4.70;3.15;;;7.60;99.90;;;;;;7383716;19;20441;-79
2021/11/09 04:06:03;;;;;;;2.58;2.35;;;7.60;99.90;;;;;;7380762;19;20681;-78
2021/11/09 04:08:39;;;;;;;3.07;2.83;;;7.60;99.90;;;;;;7384457;19;20384;-80
2021/11/09 04:11:16;;;;;;;3.58;2.85;;;7.60;99.90;;;;;;7384493;19;20316;-80
2021/11/09 04:21:45;;;;;;;4.45;2.40;;;7.60;99.90;;;;;;7387435;19;20308;-80
2021/11/09 04:24:43;;;;;;;4.40;2.85;;;7.60;99.90;;;;;;7281713;19;2013747;-79
2021/11/09 04:27:25;;;;;;;3.20;2.90;;;7.60;99.90;;;;;;7284656;19;2011482;-80
2021/11/09 04:38:51;;;;;;;3.22;2.88;;;7.60;99.90;;;;;;7278238;19;2008150;-78
2021/11/09 04:41:38;;;;;;;4.03;3.03;;;7.60;99.90;;;;;;7252279;19;2011017;-78
2021/11/09 04:49:10;;;;;;;2.72;2.53;;;7.60;99.90;;;;;;7381029;19;20335;-79
2021/11/09 05:02:30;;;;;;;2.45;2.25;;;7.60;99.90;;;;;;7378567;19;20352;-79
2021/11/09 05:10:45;;;;;;;2.65;2.45;;;7.60;99.90;;;;;;7256115;19;2004467;-78
2021/11/09 05:13:11;;;;;;;2.30;2.20;;;7.80;99.90;;;;;;7374001;19;20340;-79
2021/11/09 05:15:40;;;;;;;3.03;2.33;;;7.70;99.90;;;;;;7376994;19;20336;-79
2021/11/09 05:18:06;;;;;;;2.97;2.53;;;7.70;99.90;;;;;;7383687;19;20284;-79
2021/11/09 05:20:31;;;;;;;3.78;3.28;;;7.70;99.90;;;;;;7381674;19;20876;-78
2021/11/09 05:22:57;;;;;;;3.92;2.67;;;7.70;99.90;;;;;;7380928;19;21074;-79
2021/11/09 05:25:23;;;;;;;2.70;2.50;;;7.70;99.90;;;;;;7379284;19;20321;-79
2021/11/09 05:27:49;;;;;;;4.53;2.33;;;7.80;99.90;;;;;;7382984;19;20352;-80
2021/11/09 05:30:15;;;;;;;3.47;3.17;;;7.80;99.90;;;;;;7386152;19;20316;-79
2021/11/09 05:32:42;;;;;;;3.03;2.78;;;7.80;99.90;;;;;;7385894;19;20312;-78
2021/11/09 05:35:07;;;;;;;2.97;2.78;;;7.80;99.90;;;;;;7382695;19;20328;-79
2021/11/09 05:37:45;;;;;;;3.47;2.95;;;7.80;99.90;;;;;;7385386;19;20391;-79
2021/11/09 05:40:11;;;;;;;2.78;2.58;;;7.70;99.90;;;;;;7383608;19;20323;-79
2021/11/09 05:42:37;;;;;;;4.05;3.10;;;7.70;99.90;;;;;;7385354;19;20379;-79
2021/11/09 05:45:04;;;;;;;4.63;2.70;;;7.80;99.90;;;;;;7383504;19;20348;-79
2021/11/09 05:47:29;;;;;;;5.25;4.75;;;7.70;99.90;;;;;;7386288;19;20329;-80
2021/11/09 05:49:55;;;;;;;4.60;3.70;;;7.80;99.90;;;;;;7383023;19;20804;-79
2021/11/09 05:52:21;;;;;;;3.15;2.70;;;7.70;99.90;;;;;;7382360;19;20363;-79
2021/11/09 05:54:47;;;;;;;2.83;2.63;;;7.70;99.90;;;;;;7379303;19;20723;-78
2021/11/09 05:57:12;;;;;;;3.17;2.73;;;7.80;99.90;;;;;;7385123;19;20351;-79
2021/11/09 05:59:41;;;;;;;4.70;2.88;;;7.80;99.90;;;;;;7386494;19;20330;-78
2021/11/09 06:02:06;;;;;;;2.60;2.40;;;7.80;99.90;;;;;;7386562;19;20337;-79
2021/11/09 06:04:32;;;;;;;2.77;2.50;;;7.80;99.90;;;;;;7382320;19;20317;-77
2021/11/09 06:06:58;;;;;;;3.10;2.80;;;7.80;99.90;;;;;;7386142;19;20333;-80
2021/11/09 06:09:23;;;;;;;4.13;2.60;;;7.80;99.90;;;;;;7387337;19;20331;-79
2021/11/09 06:11:49;;;;;;;3.70;3.00;;;7.80;99.90;;;;;;7389444;19;20321;-79
2021/11/09 06:14:15;;;;;;;2.77;2.37;;;7.80;99.90;;;;;;7385184;19;20316;-79
2021/11/09 06:16:41;;;;;;;4.93;3.23;;;7.80;99.90;;;;;;7382375;19;20791;-79
2021/11/09 06:19:07;;;;;;;3.50;3.20;;;7.80;99.90;;;;;;7385753;19;20353;-79
2021/11/09 06:21:33;;;;;;;3.70;3.17;;;7.80;99.90;;;;;;7386774;19;20313;-79
2021/11/09 06:23:58;;;;;;;3.30;3.00;;;7.80;99.90;;;;;;7385717;19;20332;-79
2021/11/09 06:26:24;;;;;;;3.45;3.03;;;7.80;99.90;;;;;;7384054;19;20823;-79
2021/11/09 06:28:51;;;;;;;3.22;2.95;;;7.80;99.90;;;;;;7387759;19;20328;-79
2021/11/09 06:31:17;;;;;;;3.00;2.75;;;7.80;99.90;;;;;;7389506;19;20358;-79
2021/11/09 06:33:43;;;;;;;3.30;2.97;;;7.80;99.90;;;;;;7387361;19;20372;-79
2021/11/09 06:36:09;;;;;;;3.13;2.83;;;7.70;99.90;;;;;;7385042;19;20320;-79
2021/11/09 06:38:35;;;;;;;3.47;3.10;;;7.80;99.90;;;;;;7386544;19;20333;-79
2021/11/09 06:41:00;;;;;;;4.07;3.08;;;7.80;99.90;;;;;;7386091;19;20855;-79
2021/11/09 06:43:26;;;;;;;4.90;3.30;;;7.80;99.90;;;;;;7386494;19;20400;-79
2021/11/09 06:45:56;;;;;;;3.97;3.00;;;7.80;99.90;;;;;;7385271;19;20665;-79
2021/11/09 06:48:23;;;;;;;2.75;2.55;;;7.80;99.90;;;;;;7388551;19;20899;-78
2021/11/09 06:50:49;;;;;;;5.18;3.17;;;7.80;99.90;;;;;;7389803;19;20352;-80
2021/11/09 06:53:15;;;;;;;2.87;2.57;;;7.90;99.90;;;;;;7391656;19;20317;-79
2021/11/09 06:55:41;;;;;;;3.10;2.80;;;7.90;99.90;;;;;;7386393;19;20918;-77
2021/11/09 06:58:07;;;;;;;4.17;3.37;;;7.90;99.90;;;;;;7382296;19;20316;-79
2021/11/09 07:00:33;;;;;;;3.53;2.70;;;7.90;99.90;;;;;;7381436;19;20349;-79
2021/11/09 07:02:58;;;;;;;3.47;3.13;;;7.80;99.90;;;;;;7385102;19;20300;-78
2021/11/09 07:05:25;;;;;;;3.20;2.88;;;7.90;99.90;;;;;;7381582;19;20341;-79
2021/11/09 07:07:50;;;;;;;5.65;3.90;;;8.00;99.90;;;;;;7385586;19;20317;-79
2021/11/09 07:10:16;;;;;;;5.13;3.65;;;8.00;99.90;;;;;;7384176;19;20892;-79
2021/11/09 07:12:43;;;;;;;3.83;3.43;;;7.90;99.90;;;;;;7386353;19;20369;-79
2021/11/09 07:15:09;;;;;;;3.63;3.30;;;8.00;99.90;;;;;;7383835;19;20361;-80
2021/11/09 07:17:38;;;;;;;3.85;3.30;;;8.00;99.90;;;;;;7384972;19;20699;-79
2021/11/09 07:20:05;;;;;;;5.72;3.63;;;8.00;99.90;;;;;;7382497;19;20320;-78
2021/11/09 07:22:31;;;;;;;3.40;3.10;;;8.00;99.90;;;;;;7384747;19;20852;-80
2021/11/09 07:24:57;;;;;;;5.00;3.97;;;8.00;99.90;;;;;;7381855;19;20357;-79
2021/11/09 07:27:22;;;;;;;3.72;3.38;;;8.00;99.90;;;;;;7381895;19;21334;-78
2021/11/09 07:29:49;;;;;;;4.60;3.93;;;8.00;99.90;;;;;;7386700;19;20328;-79
2021/11/09 07:32:16;;;;;;;4.47;3.85;;;8.10;99.90;;;;;;7383417;19;20349;-79
2021/11/09 07:34:42;;;;;;;5.93;3.83;;;8.10;99.90;;;;;;7381633;19;20345;-79
2021/11/09 07:37:08;;;;;;;4.45;3.72;;;8.10;99.90;;;;;;7384097;19;20308;-78
2021/11/09 07:39:34;;;;;;;4.60;4.00;;;8.10;99.90;;;;;;7382298;19;20326;-78
2021/11/09 07:42:00;;;;;;;3.97;3.60;;;8.10;99.90;;;;;;7381135;19;20317;-78
2021/11/09 07:44:25;;;;;;;8.27;5.28;;;8.10;99.90;;;;;;7379580;19;20907;-78
2021/11/09 07:46:52;;;;;;;5.35;3.88;;;8.20;99.90;;;;;;7381158;19;20944;-79
2021/11/09 07:49:18;;;;;;;4.50;3.75;;;8.20;99.90;;;;;;7386218;19;20367;-78
2021/11/09 07:51:43;;;;;;;3.80;3.50;;;8.20;99.90;;;;;;7384161;19;20324;-79
2021/11/09 07:54:10;;;;;;;4.77;3.80;;;8.10;99.90;;;;;;7384644;19;20362;-80
2021/11/09 07:56:37;;;;;;;4.93;4.35;;;8.20;99.90;;;;;;7383875;19;20341;-78
2021/11/09 08:01:43;;;;;;;5.13;4.13;;;8.10;99.90;;;;;;7380987;19;20312;-80
2021/11/09 08:04:23;;;;;;;5.65;4.45;;;8.20;99.90;;;;;;7384319;19;20345;-79
2021/11/09 08:09:27;;;;;;;4.60;4.10;;;8.20;99.90;;;;;;7387224;19;20321;-80
2021/11/09 08:11:53;;;;;;;4.22;3.80;;;8.30;99.90;;;;;;7283511;19;2010716;-78
2021/11/09 08:14:18;;;;;;;4.78;4.28;;;8.30;99.90;;;;;;7381140;19;20313;-79
2021/11/09 08:16:44;;;;;;;4.10;3.70;;;8.40;99.90;;;;;;7384670;19;20400;-79
2021/11/09 08:19:11;;;;;;;4.80;4.10;;;8.40;99.90;;;;;;7383831;19;20868;-79
2021/11/09 08:21:37;;;;;;;3.97;3.13;;;8.50;99.90;;;;;;7383557;19;20321;-78
2021/11/09 08:24:03;;;;;;;4.43;3.37;;;8.50;99.90;;;;;;7384762;19;20643;-79
2021/11/09 08:26:29;;;;;;;4.18;3.20;;;8.50;99.90;;;;;;7380363;19;20395;-80
2021/11/09 08:28:55;;;;;;;3.65;3.30;;;8.60;99.90;;;;;;7385557;19;20340;-80
2021/11/09 08:31:23;;;;;;;5.47;3.58;;;8.60;99.90;;;;;;7384500;19;20321;-83
2021/11/09 08:33:49;;;;;;;4.35;3.00;;;8.60;99.90;;;;;;7381846;19;20313;-78
2021/11/09 08:36:21;;;;;;;4.90;3.30;;;8.60;99.90;;;;;;7382533;19;20316;-78
2021/11/09 08:38:47;;;;;;;4.93;3.65;;;8.70;99.90;;;;;;7382874;19;20324;-79
2021/11/09 08:41:13;;;;;;;3.93;3.60;;;8.80;99.90;;;;;;7382388;19;20300;-79
2021/11/09 08:43:39;;;;;;;10.20;3.90;;;8.80;99.90;;;;;;7385322;19;20337;-78
2021/11/09 08:46:18;;;;;;;3.90;3.47;;;8.80;99.90;;;;;;7382798;19;20341;-78
2021/11/09 08:48:45;;;;;;;3.90;3.50;;;8.90;99.90;;;;;;7382693;19;20317;-79
2021/11/09 08:51:12;;;;;;;6.22;3.50;;;8.90;99.90;;;;;;7384500;19;20345;-79
2021/11/09 08:53:52;;;;;;;4.30;3.35;;;8.90;99.90;;;;;;7383125;19;20320;-79
2021/11/09 09:04:12;;;;;;;4.15;3.78;;;9.20;99.90;;;;;;7383317;19;20444;-79
2021/11/09 09:06:38;;;;;;;7.75;3.95;;;9.30;99.90;;;;;;7388705;19;20320;-78
2021/11/09 09:09:04;;;;;;;4.43;3.60;;;9.30;99.90;;;;;;7390133;19;20311;-78
2021/11/09 09:11:30;;;;;;;4.53;4.13;;;9.40;99.90;;;;;;7389442;19;20367;-79
2021/11/09 09:13:56;;;;;;;5.07;4.35;;;9.50;99.90;;;;;;7388993;19;20693;-79
2021/11/09 09:16:22;;;;;;;4.53;3.63;;;9.50;99.90;;;;;;7387537;19;20343;-79
2021/11/09 09:18:48;;;;;;;4.07;3.70;;;9.60;99.90;;;;;;7389286;19;20304;-78
2021/11/09 09:21:20;;;;;;;5.70;4.53;;;9.70;99.90;;;;;;7384755;19;20312;-78
2021/11/09 09:23:48;;;;;;;5.60;3.45;;;9.70;99.90;;;;;;7390523;19;20336;-77
2021/11/09 09:26:40;;;;;;;5.03;3.95;;;9.80;99.90;;;;;;7389328;19;20320;-78
2021/11/09 09:29:22;;;;;;;5.77;4.40;;;9.80;99.90;;;;;;7287071;19;2006982;-78
2021/11/09 09:32:05;;;;;;;5.57;4.00;;;9.90;99.90;;;;;;7283945;19;2011543;-78
2021/11/09 09:54:06;;;;;;;4.18;3.78;;;10.10;99.90;;;;;;7384541;19;20891;-79
2021/11/09 09:56:44;;;;;;;6.18;4.05;;;10.30;99.90;;;;;;7385469;19;20371;-80
2021/11/09 09:59:11;;;;;;;5.10;3.60;;;10.20;99.90;;;;;;7386425;19;20343;-79
2021/11/09 10:01:41;;;;;;;5.72;3.78;;;10.40;99.90;;;;;;7387580;19;20319;-79
2021/11/09 10:04:27;;;;;;;7.75;4.05;;;10.40;99.90;;;;;;7384246;19;20418;-82
2021/11/09 10:06:53;;;;;;;6.68;4.35;;;10.50;99.90;;;;;;7285395;19;2020030;-80
2021/11/09 10:09:44;;;;;;;5.20;3.85;;;10.50;99.90;;;;;;7387292;19;20353;-81
2021/11/09 10:12:22;;;;;;;4.88;3.72;;;10.60;99.90;;;;;;7284465;19;2005130;-79
2021/11/09 10:14:49;;;;;;;6.20;4.00;;;10.60;99.90;;;;;;7384499;19;20349;-80
2021/11/09 10:17:22;;;;;;;4.72;3.40;;;10.60;99.90;;;;;;7386347;19;20318;-79
2021/11/09 10:19:48;;;;;;;3.30;3.00;;;10.60;99.90;;;;;;7388589;19;20308;-78
2021/11/09 10:22:22;;;;;;;3.08;2.75;;;10.60;99.90;;;;;;7389502;19;20851;-79
2021/11/09 10:25:02;;;;;;;9.00;4.57;;;10.70;99.90;;;;;;7385984;19;20344;-80
2021/11/09 10:27:30;;;;;;;6.32;3.42;;;10.80;99.90;;;;;;7388392;19;20387;-81
2021/11/09 10:29:56;;;;;;;4.43;3.45;;;10.80;99.90;;;;;;7390650;19;20381;-79
2021/11/09 10:32:25;;;;;;;4.22;3.67;;;11.00;99.90;;;;;;7389660;19;21184;-80
2021/11/09 10:34:51;;;;;;;3.45;3.15;;;11.00;99.90;;;;;;7389349;19;20361;-83
2021/11/09 10:37:26;;;;;;;3.47;3.10;;;11.00;99.90;;;;;;7403175;19;20857;-85
2021/11/09 10:39:53;;;;;;;5.43;3.63;;;10.90;99.90;;;;;;7294700;19;2015756;-80
2021/11/09 10:42:21;;;;;;;5.07;3.40;;;11.00;99.90;;;;;;7390894;19;20309;-80
2021/11/09 10:44:57;;;;;;;3.40;2.83;;;11.10;99.90;;;;;;7386925;19;20841;-80
2021/11/09 10:47:26;;;;;;;3.50;3.20;;;11.20;99.90;;;;;;7389502;19;21087;-80
2021/11/09 10:49:54;;;;;;;7.07;3.03;;;11.30;99.90;;;;;;7391590;19;20341;-81
2021/11/09 10:52:31;;;;;;;5.03;3.50;;;11.30;99.90;;;;;;7390859;19;20313;-81
2021/11/09 10:55:09;;;;;;;2.92;2.65;;;11.30;99.90;;;;;;7388640;19;20360;-79
2021/11/09 10:57:46;;;;;;;5.40;3.35;;;11.20;99.90;;;;;;7385996;19;20421;-80
2021/11/09 11:00:20;;;;;;;3.25;3.00;;;11.30;99.90;;;;;;7385275;19;20371;-80
2021/11/09 11:05:30;;;;;;;4.38;2.90;;;11.40;99.90;;;;;;7384684;19;20315;-78
2021/11/09 11:07:56;;;;;;;5.03;2.53;;;11.40;99.90;;;;;;7388036;19;20305;-79
2021/11/09 11:10:30;;;;;;;3.47;2.47;;;11.30;99.90;;;;;;7387097;19;20428;-80
2021/11/09 11:13:21;;;;;;;2.65;2.30;;;11.30;99.90;;;;;;7284134;19;2010504;-80
2021/11/09 11:16:07;;;;;;;2.40;2.20;;;11.30;99.90;;;;;;7282198;19;2008592;-80
2021/11/09 11:18:43;;;;;;;2.35;2.13;;;11.40;99.90;;;;;;7385882;19;20315;-80
2021/11/09 11:21:10;;;;;;;2.75;2.33;;;11.30;99.90;;;;;;7386233;19;20317;-80
2021/11/09 11:23:40;;;;;;;2.10;2.00;;;11.30;99.90;;;;;;7390461;19;20408;-84
2021/11/09 12:59:19;;;;;;;2.73;1.60;;;13.00;99.90;;;;;;7419116;19;20312;-90
2021/11/09 13:10:05;;;;;;;2.70;1.50;;;12.90;99.90;;;;;;7315007;19;2003988;-89
2021/11/09 13:12:33;;;;;;;1.45;1.35;;;12.70;99.90;;;;;;7418867;19;20335;-89
2021/11/09 13:15:01;;;;;;;3.13;1.50;;;12.70;99.90;;;;;;7419062;19;20343;-89
2021/11/09 13:17:44;;;;;;;1.77;1.40;;;12.40;99.90;;;;;;7419994;19;20741;-89
2021/11/09 13:23:16;;;;;;;1.35;1.25;;;12.20;99.90;;;;;;7415760;19;20340;-89
2021/11/09 13:25:43;;;;;;;1.73;1.50;;;12.30;99.90;;;;;;7419075;19;20346;-87
2021/11/09 13:28:13;;;;;;;1.55;1.40;;;12.30;99.90;;;;;;7397821;19;20320;-88
2021/11/09 13:30:41;;;;;;;2.45;1.65;;;12.20;99.90;;;;;;7416617;19;20341;-90
2021/11/09 13:33:07;;;;;;;1.38;1.27;;;12.10;99.90;;;;;;7419781;19;20289;-89
2021/11/09 13:35:44;;;;;;;1.35;1.10;;;12.20;99.90;;;;;;7416318;19;24564;-88
2021/11/09 13:38:16;;;;;;;1.50;1.40;;;12.30;99.90;;;;;;7418300;19;20337;-90
2021/11/09 13:40:45;;;;;;;1.55;1.38;;;12.40;99.90;;;;;;7418641;19;20332;-91
2021/11/09 13:43:12;;;;;;;1.80;1.50;;;12.30;99.90;;;;;;7416620;19;20313;-89
2021/11/09 13:45:38;;;;;;;1.45;1.35;;;12.20;99.90;;;;;;7392878;19;20684;-90
2021/11/09 13:48:12;;;;;;;2.15;1.15;;;12.30;99.90;;;;;;7420428;19;20321;-90
2021/11/09 13:50:44;;;;;;;1.23;1.17;;;12.30;99.90;;;;;;7425158;19;20370;-90
2021/11/09 13:53:23;;;;;;;1.20;1.10;;;12.40;99.90;;;;;;7423225;19;20333;-90
2021/11/09 13:55:50;;;;;;;1.60;1.30;;;12.50;99.90;;;;;;7427193;19;20335;-91
2021/11/09 13:58:17;;;;;;;1.30;1.20;;;12.40;99.90;;;;;;7426242;19;20307;-88
2021/11/09 14:00:55;;;;;;;1.65;1.50;;;12.20;99.90;;;;;;7424613;19;20339;-86
2021/11/09 14:03:33;;;;;;;2.97;1.38;;;12.00;99.90;;;;;;7423661;19;20368;-89
2021/11/09 14:12:00;;;;;;;1.15;1.15;;;11.50;99.90;;;;;;7302560;19;2005835;-88
2021/11/09 14:17:00;;;;;;;1.63;1.53;;;11.40;99.90;;;;;;7424300;19;20368;-86
2021/11/09 15:05:24;;;;;;;1.60;1.50;;;10.20;99.90;;;;;;7297045;19;20320;-79
2021/11/09 15:11:27;;;;;;;1.43;1.33;;;10.00;99.90;;;;;;7124884;19;2004584;-79
2021/11/09 15:28:23;;;;;;;1.95;1.48;;;9.60;99.90;;;;;;7364542;19;20425;-79
2021/11/09 15:31:07;;;;;;;1.10;1.10;;;9.50;99.90;;;;;;7260729;19;2004322;-81
2021/11/09 15:33:48;;;;;;;1.03;1.00;;;9.30;99.90;;;;;;7362831;19;20351;-79
2021/11/09 15:42:19;;;;;;;1.98;1.20;;;9.30;99.90;;;;;;7426073;19;20418;-79
2021/11/09 15:55:45;;;;;;;1.65;1.33;;;9.00;99.90;;;;;;7421506;19;20370;-79
2021/11/09 16:17:28;;;;;;;1.03;1.03;;;8.40;99.90;;;;;;7418597;19;20370;-79
2021/11/09 16:27:50;;;;;;;1.00;1.00;;;8.10;99.90;;;;;;7310124;19;20336;-79
2021/11/09 16:35:50;;;;;;;2.58;1.70;;;7.90;99.90;;;;;;7415550;19;20373;-79
2021/11/09 16:39:48;;;;;;;1.55;1.45;;;7.80;99.90;;;;;;7408951;19;20433;-79
2021/11/09 16:52:36;;;;;;;3.30;2.72;;;7.50;99.90;;;;;;7299171;19;20349;-79
2021/11/09 18:07:09;;;;;;;2.05;1.95;;;5.80;99.90;;;;;;7375168;19;20377;-79
2021/11/09 18:13:00;;;;;;;2.95;2.10;;;5.80;99.90;;;;;;7227718;19;2004590;-79
2021/11/09 18:21:07;;;;;;;2.80;2.13;;;5.70;99.90;;;;;;7267348;19;2004409;-79
2021/11/09 18:23:38;;;;;;;2.20;2.00;;;5.70;99.90;;;;;;7365121;19;20453;-79
2021/11/09 18:26:07;;;;;;;2.20;2.00;;;5.70;99.90;;;;;;7387594;19;20316;-79
2021/11/09 18:28:37;;;;;;;1.80;1.70;;;5.70;99.90;;;;;;7359639;19;20345;-78
2021/11/09 18:31:05;;;;;;;2.25;2.05;;;5.70;99.90;;;;;;7335877;19;20329;-79
2021/11/09 18:33:34;;;;;;;2.40;2.20;;;5.60;99.90;;;;;;7341436;19;20360;-78
2021/11/09 18:36:15;;;;;;;2.63;2.38;;;5.70;99.90;;;;;;7345775;19;20933;-82
2021/11/09 18:38:43;;;;;;;2.38;2.17;;;5.80;99.90;;;;;;7269300;19;2004408;-80
2021/11/09 18:41:11;;;;;;;3.15;2.30;;;5.80;99.90;;;;;;7359948;19;20324;-79
2021/11/09 18:43:39;;;;;;;4.10;2.47;;;5.70;99.90;;;;;;7378968;19;20351;-79
2021/11/09 18:46:12;;;;;;;2.22;2.10;;;5.80;99.90;;;;;;7356446;19;20325;-79
2021/11/09 18:48:44;;;;;;;4.85;4.25;;;5.80;99.90;;;;;;7226176;19;2004413;-79
2021/11/09 18:51:15;;;;;;;4.53;3.40;;;5.80;99.90;;;;;;7368743;19;20332;-78
2021/11/09 18:53:43;;;;;;;3.28;2.97;;;5.80;99.90;;;;;;7352301;19;20443;-79
2021/11/09 18:56:09;;;;;;;3.15;2.80;;;5.80;99.90;;;;;;7346042;19;20400;-79
2021/11/09 18:58:35;;;;;;;2.08;1.95;;;5.80;99.90;;;;;;7380160;19;20308;-79
2021/11/09 19:01:01;;;;;;;2.42;2.20;;;5.70;99.90;;;;;;7380157;19;20349;-79
2021/11/09 19:03:28;;;;;;;3.73;2.20;;;5.70;99.90;;;;;;7374740;19;21492;-79
2021/11/09 19:05:57;;;;;;;2.60;2.40;;;5.60;99.90;;;;;;7375108;19;20337;-78
2021/11/09 19:08:29;;;;;;;3.15;2.80;;;5.60;99.90;;;;;;7350745;19;20384;-79
2021/11/09 19:10:57;;;;;;;3.53;3.22;;;5.60;99.90;;;;;;7372359;19;20348;-79
2021/11/09 19:13:27;;;;;;;3.25;2.95;;;5.60;99.90;;;;;;7379722;19;20312;-78
2021/11/09 19:15:58;;;;;;;3.10;2.80;;;5.50;99.90;;;;;;7357717;19;20309;-79
2021/11/09 19:18:32;;;;;;;2.88;2.67;;;5.50;99.90;;;;;;7366815;19;20302;-78
2021/11/09 19:20:59;;;;;;;4.03;3.13;;;5.50;99.90;;;;;;7372175;19;20320;-79
2021/11/09 19:23:27;;;;;;;2.67;2.47;;;5.60;99.90;;;;;;7359182;19;20344;-79
2021/11/09 19:25:54;;;;;;;3.42;2.80;;;5.60;99.90;;;;;;7377894;19;20311;-79
2021/11/09 19:28:23;;;;;;;3.15;2.80;;;5.60;99.90;;;;;;7380442;19;20328;-79
2021/11/09 19:30:49;;;;;;;3.05;2.85;;;5.50;99.90;;;;;;7376683;19;20328;-79
2021/11/09 19:33:16;;;;;;;3.28;2.70;;;5.60;99.90;;;;;;7381696;19;20324;-79
2021/11/09 19:35:42;;;;;;;2.50;2.30;;;5.50;99.90;;;;;;7356668;19;20360;-79
2021/11/09 19:38:08;;;;;;;2.53;2.33;;;5.60;99.90;;;;;;7380971;19;20391;-79
2021/11/09 19:40:34;;;;;;;2.78;2.53;;;5.50;99.90;;;;;;7378470;19;21232;-79
2021/11/09 19:43:00;;;;;;;2.58;2.35;;;5.50;99.90;;;;;;7380942;19;20353;-79
2021/11/09 19:45:29;;;;;;;2.13;1.95;;;5.50;99.90;;;;;;7380194;19;20324;-79
2021/11/09 19:47:58;;;;;;;2.15;1.80;;;5.50;99.90;;;;;;7380054;19;20929;-79
2021/11/09 19:50:24;;;;;;;2.08;1.98;;;5.50;99.90;;;;;;7374624;19;20349;-79
2021/11/09 19:52:55;;;;;;;1.77;1.67;;;5.40;99.90;;;;;;7374997;19;20407;-79
2021/11/09 19:55:25;;;;;;;1.95;1.80;;;5.40;99.90;;;;;;7373494;19;20312;-79
2021/11/09 19:57:55;;;;;;;2.40;2.10;;;5.40;99.90;;;;;;7374439;19;20684;-79
2021/11/09 20:00:21;;;;;;;2.13;1.92;;;5.40;99.90;;;;;;7374373;19;20324;-79
2021/11/09 20:02:49;;;;;;;1.95;1.85;;;5.30;99.90;;;;;;7370803;19;20336;-79
2021/11/09 20:05:17;;;;;;;2.05;1.92;;;5.30;99.90;;;;;;7373039;19;20345;-78
2021/11/09 20:07:44;;;;;;;2.15;1.95;;;5.30;99.90;;;;;;7372616;19;20428;-79
2021/11/09 20:10:10;;;;;;;1.70;1.60;;;5.30;99.90;;;;;;7374573;19;20328;-79
2021/11/09 20:12:38;;;;;;;2.20;2.00;;;5.20;99.90;;;;;;7376897;19;20308;-80
2021/11/09 20:15:10;;;;;;;2.08;1.80;;;5.20;99.90;;;;;;7383046;19;20867;-79